ЗЦ Новосибирск

Зональный Центр Единой Системы Организации Воздушного Движения (ЗЦ ЕС ОрВД) Новосибирск является структурным подразделением дивизиона VATRUS сети VATSIM.

ЗЦ включает в себя РПИ Новосибирска, Красноярска и Иркутска, которые вместе покрывают воздушное пространство над территорией Сибирского федерального округа Российской Федерации общей площадью более 5 млн км². На территории зонального центра располагаются более 10 международных аэропортов федерального значения; кроме того, именно в верхнем воздушном пространстве Новосибирска и Красноярска проходят Транссибирские трассы, обеспечивающие транзитный поток воздушных судов из Европы и Северной Америки в Азию и обратно через 18 коридоров, соединяющих Россию с Монголией, Китаем и Казахстаном.

В сети ВАТСИМ обслуживание воздушного движения над территорией ЗЦ Новосибирск осуществляет позиция RU-ESC_FSS, позывной "Байкал-Центр", частота 135.225.

Лого ЗЦ Новосибирск
Руководитель региона

Aleksey Nevzorov

Контакты

Инструкторы региона
Aleksey Nevzorov (Instructor)
Anton Myglan (Senior Instructor)
Artem Smychkov * (Controller)
Kirill Shabunin * (Senior Controller)
Mikhail Gogolev (Instructor)
Sergey Korolev (Instructor)
Включает в себя

РПИ Иркутск
РПИ Красноярск
РПИ Новосибирск

Диспетчеры региона

Диспетчер Рейтинг Допуски *
Aleksey Nevzorov Instructor UNNT_CTR
Alexander Shchelganov Senior Student UNNT_CTR *, UNNT_APP
Artem Smychkov Controller UIII_CTR, UNKL_CTR, UNNT_CTR
Ivan Chokenyuk Controller UNKL_CTR
Kirill Shabunin Senior Controller UIII_CTR, UNKL_CTR, UNNT_CTR
Mikhail Gogolev Instructor UIII_CTR, UNKL_CTR, UNNT_CTR
Sergey Korolev Instructor UIII_CTR
Alexey Ginko Student UNNT_GND
Anton Agaev Instructor UNKL_GND
Anton Gluchenkov Student 2 UNNT_TWR
Arseniy Kucheev Student 2 UNOO_GND, UNNT_TWR, UNEE_TWR
Artem Glinchikov Student UNNT_GND
Artem Tsendrovsky Student 2 UNKL_TWR, UNOO_TWR, UNNT_TWR, UNNT_R_APP*
Artem Yusko Student UNNT_GND
Boris Yakunin Student UNNT_GND, UNNT_TWR*
Danila Lezhnin Student UNNT_GND
Darya Krauz Student UNNT_GND
Kirill Ivanov Student UNNT_TWR*, UNOO_GND, UNNT_GND
Konstantin Bednov Student 2 UNKL_TWR, UNNT_TWR
Mikhail Pompushko Student 2 UNNT_TWR, UNNT_GND
Sergey Arkasov Student UNNT_TWR*, UNNT_GND
Sergey Belkin Student UNNT_GND, UNOO_GND
Stas Butrim Student UNNT_GND
Stepan Seleznev Student 2 UNNT_GND
Tigran Areian Senior Student UIII_APP, UNKL_APP(UNKL+UNKM), UNNT_APP, UNOO_APP
Timofei Degtyar Student 2 UIII_TWR, UNNT_R_APP*, UNNT_TWR, UNOO_TWR
Timur Samarin Senior Student UNNT_TWR
Yulia Khudic Student UNNT_GND

Аэропорты региона

ICAO Город Название Погода
UNKL Красноярск Красноярск UNKL 161830Z 00000MPS 9999 SCT034 M12/M13 Q1015 R29/390140 NOSIG RMK QFE735
UNAA Абакан Абакан UNAA 161830Z 07001MPS 1000 R02/P2000N BR FU NSC M15/M17 Q1018 R02/820160 TEMPO 0600 FZFG FU VV002 RMK QFE741
UNKS Ачинск Ачинск
UNIB Байкит Байкит
UNBB Барнаул Барнаул UNBB 161830Z 21007MPS CAVOK 03/M00 Q1009 R24/950330 NOSIG RMK QFE735
UNIP Бор Подкаменная Тунгуска
UIBB Братск Братск UIBB 161830Z AUTO 13002MPS 100V170 1300 // ///015/// M14/M16 Q1014 RMK QFE718/0957
UNIW Ванавара Ванавара
UNBG Горно-Алтайск Горно-Алтайск
UNII Енисейск Енисейск
UIBV Железногорск Железногорск
UOII Игарка Игарка
UIII Иркутск Иркутск UIII 161830Z 09003MPS CAVOK M12/M15 Q1018 R12/390045 NOSIG RMK QFE721/0962
UNEE Кемерово Кемерово UNEE 161830Z 12006MPS 4600 -FZRA -SHSN BKN034CB M01/M02 Q1008 R05/820545 NOSIG RMK QFE734
UNKM Красноярск-КЯС Черемшанка
UNKY Кызыл Кызыл
UNWW Новокузнецк Новокузнецк UNWW 161830Z 15002MPS 7000 -SN BKN037 M01/M03 Q1012 R19/390137 NOSIG RMK QFE732
UNNT Новосибирск Новосибирск UNNT 161830Z 19006MPS 9999 OVC018 03/00 Q1006 R25/390138 R16/////// NOSIG RMK QFE744/0993
UOOO Норильск Норильск UOOO 161800Z 17015MPS 0800 0650NE R19/1700N -SN BLSN OVC035 M12/M13 Q1002 R19/39//37 NOSIG RMK QFE736/0981
UNOO Омск Омск UNOO 161830Z 22012MPS 5000 BLSN BKN015 M03/M06 Q0997 R25/390040 NOSIG RMK QFE739
UOIG Светлогорск Светлогорск
UNIS Северо-Енисейск Северо-Енисейск
UNSS Стрежевой Стрежевой
UNTT Томск Томск UNTT 161830Z 13004MPS 7000 -SHSN BKN008CB M03/M04 Q1007 R21/////// NOSIG RMK QFE740
UIUU Улан-Удэ Улан-Удэ UIUU 161830Z 10002MPS 3400 FU NSC M28/M31 Q1025 R26/820550 NOSIG RMK QFE724/0966
UITT Усть-Кут Усть-Кут
UOHH Хатанга Хатанга
UIAA Чита Чита UIAA 161830Z AUTO 34002MPS 9999 NCD M31/M34 Q1026 RMK QFE711/0948
UNKB Богучаны Богучаны
UIKB Бодайбо Бодайбо
UIKK Киренск Киренск
UNKI Кодинск Кодинск
UIUN Нижнеангарск Нижнеангарск
UECT Талакан Талакан
UNIT Тура Горный
UOTT Туруханск Туруханск
UIBS Усть-Илимск Усть-Илимск
UIAR Чара Чара
UNAU Шушенское Шушенское